Time;durP1;ratioP1;P1;durP2;ratioP2;P2;SDS_P1;SDS_P2;PMS_P1;PMS_P2;Temp;Humidity;BMP_temperature;BMP_pressure;BME280_temperature;BME280_humidity;BME280_pressure;Samples;Min_cycle;Max_cycle;Signal;HPM_P1;HPM_P2
2023/07/24 00:00:22;;;;;;;15.82;10.20;;;;;;;29.82;38.07;98589.84;2089004;28;20482;-53
2023/07/24 00:01:24;;;;;;;14.93;8.65;;;;;;;29.92;38.22;98592.53;2089036;28;21803;-50
2023/07/24 00:02:25;;;;;;;18.42;10.70;;;;;;;29.86;37.97;98588.16;2090400;28;20771;-51
2023/07/24 00:03:28;;;;;;;16.63;10.32;;;;;;;29.84;37.76;98587.66;2089129;28;20048;-51
2023/07/24 00:04:30;;;;;;;16.50;9.60;;;;;;;29.86;37.82;98587.34;2089469;28;20059;-50
2023/07/24 00:05:32;;;;;;;17.77;10.43;;;;;;;29.83;38.11;98588.72;2089547;28;21327;-53
2023/07/24 00:06:32;;;;;;;16.45;10.15;;;;;;;29.81;38.18;98591.75;2089122;28;20053;-52
2023/07/24 00:07:33;;;;;;;16.80;10.25;;;;;;;29.78;38.23;98588.72;2087769;28;20077;-50
2023/07/24 00:08:35;;;;;;;16.40;10.23;;;;;;;29.76;37.79;98586.28;2088041;28;20079;-51
2023/07/24 00:09:36;;;;;;;17.90;10.93;;;;;;;29.76;38.13;98589.03;2089513;28;20053;-51
2023/07/24 00:10:37;;;;;;;15.88;10.32;;;;;;;29.77;37.55;98581.66;2088726;27;20043;-51
2023/07/24 00:11:38;;;;;;;16.65;10.60;;;;;;;29.80;37.92;98576.44;2089572;28;20056;-50
2023/07/24 00:12:40;;;;;;;19.75;11.27;;;;;;;29.82;37.73;98584.38;2086828;28;20040;-52
2023/07/24 00:13:41;;;;;;;14.70;10.00;;;;;;;29.81;37.98;98585.44;2091208;28;20917;-54
2023/07/24 00:14:42;;;;;;;15.52;9.85;;;;;;;29.81;37.79;98582.72;2088084;28;20049;-50
2023/07/24 00:15:43;;;;;;;12.35;9.07;;;;;;;29.81;37.33;98588.19;2090030;28;20082;-50
2023/07/24 00:16:45;;;;;;;18.85;11.20;;;;;;;29.80;37.61;98583.81;2088664;28;20057;-52
2023/07/24 00:17:46;;;;;;;15.15;9.55;;;;;;;29.81;37.52;98575.34;2088468;28;20135;-51
2023/07/24 00:18:49;;;;;;;15.85;10.23;;;;;;;29.85;37.29;98586.53;2089065;28;20064;-51
2023/07/24 00:19:49;;;;;;;15.88;10.27;;;;;;;29.86;37.69;98577.22;2080251;28;20392;-52
2023/07/24 00:20:51;;;;;;;16.05;10.05;;;;;;;29.81;37.68;98577.25;2080421;28;20059;-50
2023/07/24 00:21:52;;;;;;;15.40;10.65;;;;;;;29.79;37.78;98574.81;2079745;28;20057;-50
2023/07/24 00:22:53;;;;;;;17.73;10.63;;;;;;;29.74;37.61;98574.00;2080174;28;20455;-49
2023/07/24 00:23:54;;;;;;;19.42;11.20;;;;;;;29.73;37.61;98584.13;2079859;28;20124;-51
2023/07/24 00:24:56;;;;;;;15.75;10.05;;;;;;;29.74;37.50;98576.72;2072241;28;20337;-53
2023/07/24 00:25:56;;;;;;;16.60;11.07;;;;;;;29.69;37.51;98576.75;2077440;28;20131;-53
2023/07/24 00:26:58;;;;;;;16.33;10.95;;;;;;;29.70;37.17;98567.44;2082897;28;20041;-53
2023/07/24 00:27:59;;;;;;;16.13;10.13;;;;;;;29.71;37.19;98569.91;2081697;28;20080;-53
2023/07/24 00:29:01;;;;;;;16.52;11.32;;;;;;;29.73;37.00;98561.44;2079647;28;20401;-50
2023/07/24 00:30:02;;;;;;;19.30;10.50;;;;;;;29.79;36.96;98571.25;2080778;28;20464;-51
2023/07/24 00:31:04;;;;;;;19.88;10.07;;;;;;;29.79;37.29;98572.06;2080599;28;20298;-51
2023/07/24 00:32:05;;;;;;;16.55;9.27;;;;;;;29.81;37.37;98563.56;2079861;28;20131;-53
2023/07/24 00:33:07;;;;;;;18.38;11.23;;;;;;;29.83;37.25;98564.13;2079773;28;20057;-52
2023/07/24 00:34:09;;;;;;;16.65;10.43;;;;;;;29.85;37.74;98556.47;2081840;28;20239;-51
2023/07/24 00:35:11;;;;;;;17.00;10.57;;;;;;;29.83;37.20;98558.66;2080954;28;20060;-50
2023/07/24 00:36:12;;;;;;;14.45;9.05;;;;;;;29.87;37.26;98562.47;2079700;28;20072;-52
2023/07/24 00:37:14;;;;;;;16.67;10.82;;;;;;;29.87;37.20;98561.66;2080421;28;20052;-50
2023/07/24 00:38:14;;;;;;;16.20;11.65;;;;;;;29.86;37.46;98560.81;2080030;28;20045;-53
2023/07/24 00:39:16;;;;;;;19.05;11.48;;;;;;;29.89;37.41;98565.72;2079145;28;20107;-51
2023/07/24 00:40:17;;;;;;;16.80;11.07;;;;;;;29.92;37.41;98559.72;2080402;28;20053;-53
2023/07/24 00:41:19;;;;;;;18.05;11.18;;;;;;;29.94;37.73;98567.63;2080023;28;20041;-53
2023/07/24 00:42:20;;;;;;;17.58;11.88;;;;;;;29.94;37.21;98562.16;2078317;28;20068;-52
2023/07/24 00:43:21;;;;;;;13.55;9.57;;;;;;;29.94;37.28;98556.69;2074526;28;20052;-51
2023/07/24 00:44:22;;;;;;;14.98;9.43;;;;;;;29.95;37.69;98559.16;2082360;28;20045;-53
2023/07/24 00:45:25;;;;;;;14.52;9.25;;;;;;;29.98;37.54;98558.59;2082205;28;20043;-51
2023/07/24 00:46:25;;;;;;;16.90;10.18;;;;;;;29.98;37.85;98561.34;2081123;28;20492;-50
2023/07/24 00:47:28;;;;;;;14.88;10.30;;;;;;;29.99;38.39;98565.69;2080875;28;20321;-54
2023/07/24 00:48:29;;;;;;;18.60;10.88;;;;;;;29.96;38.00;98563.53;2081576;28;20049;-53
2023/07/24 00:49:32;;;;;;;14.70;9.73;;;;;;;29.95;38.00;98561.06;2081966;28;20048;-51
2023/07/24 00:50:34;;;;;;;19.75;11.15;;;;;;;29.96;38.01;98563.53;2082885;28;20050;-52
2023/07/24 00:51:36;;;;;;;13.68;9.60;;;;;;;29.96;37.42;98560.78;2078521;28;20046;-54
2023/07/24 00:52:37;;;;;;;17.27;9.77;;;;;;;29.97;37.89;98569.81;2079792;28;20049;-54
2023/07/24 00:53:38;;;;;;;17.05;10.73;;;;;;;29.97;37.98;98567.88;2078964;28;20046;-49
2023/07/24 00:54:39;;;;;;;16.23;10.13;;;;;;;29.98;37.94;98568.72;2082905;28;20492;-51
2023/07/24 00:55:42;;;;;;;15.80;9.95;;;;;;;29.98;38.06;98575.00;2085479;28;20056;-50
2023/07/24 00:56:44;;;;;;;16.17;10.18;;;;;;;30.00;38.19;98572.78;2088477;28;20048;-52
2023/07/24 00:57:46;;;;;;;18.70;11.48;;;;;;;30.02;38.08;98578.81;2088963;28;20124;-53
2023/07/24 00:58:48;;;;;;;17.98;10.50;;;;;;;30.01;39.37;98585.38;2089119;28;20087;-53
2023/07/24 00:59:50;;;;;;;13.55;8.52;;;;;;;30.02;39.28;98587.00;2078841;28;20049;-51
2023/07/24 01:00:52;;;;;;;16.23;8.93;;;;;;;30.05;39.42;98585.63;2080982;28;20710;-51
2023/07/24 01:01:53;;;;;;;16.55;9.68;;;;;;;30.03;39.05;98585.09;2083572;28;20049;-49
2023/07/24 01:02:56;;;;;;;17.73;9.77;;;;;;;30.04;38.90;98590.28;2079380;28;20087;-51
2023/07/24 01:03:58;;;;;;;15.57;10.30;;;;;;;30.04;38.85;98593.03;2079950;28;20131;-49
2023/07/24 01:05:02;;;;;;;13.80;8.82;;;;;;;30.04;38.91;98595.75;2078729;28;20320;-52
2023/07/24 01:06:05;;;;;;;16.70;10.40;;;;;;;30.04;39.58;98590.28;2079951;28;20041;-53
2023/07/24 01:07:06;;;;;;;17.80;10.52;;;;;;;30.04;39.30;98595.75;2080058;28;20073;-51
2023/07/24 01:08:08;;;;;;;12.70;9.23;;;;;;;30.03;39.63;98594.13;2081981;28;20095;-52
2023/07/24 01:09:09;;;;;;;15.15;9.52;;;;;;;30.02;39.62;98581.53;2080414;28;20060;-51
2023/07/24 01:10:11;;;;;;;16.58;10.00;;;;;;;30.03;39.56;98588.66;2079891;28;20513;-52
2023/07/24 01:11:16;;;;;;;15.27;9.85;;;;;;;30.03;39.55;98588.66;2079495;28;20463;-52
2023/07/24 01:12:30;;;;;;;16.00;10.73;;;;;;;30.06;39.49;98590.84;2080876;28;20063;-52
2023/07/24 01:13:36;;;;;;;14.45;10.27;;;;;;;30.04;39.20;98589.47;2082291;28;20036;-53
2023/07/24 01:14:45;;;;;;;14.63;10.13;;;;;;;30.02;39.20;98591.66;2082543;28;20402;-50
2023/07/24 01:16:06;;;;;;;16.52;10.05;;;;;;;29.95;38.44;98581.03;2080599;28;20096;-51
2023/07/24 01:17:09;;;;;;;15.45;9.93;;;;;;;29.95;38.40;98581.03;2080470;28;20140;-51
2023/07/24 01:18:11;;;;;;;14.43;10.25;;;;;;;29.94;38.23;98578.56;2082892;28;20045;-51
2023/07/24 01:19:27;;;;;;;13.68;9.40;;;;;;;29.95;37.91;98572.84;2081959;28;20500;-50
2023/07/24 01:20:35;;;;;;;16.77;10.80;;;;;;;29.91;38.38;98562.72;2078717;28;20041;-53
2023/07/24 01:21:48;;;;;;;16.67;10.52;;;;;;;29.90;38.04;98555.63;2090067;28;20886;-53
2023/07/24 01:23:05;;;;;;;16.27;9.40;;;;;;;29.89;38.22;98560.25;2078344;28;20106;-50
2023/07/24 01:24:18;;;;;;;17.20;9.88;;;;;;;29.90;38.28;98558.38;2090332;28;20060;-52
2023/07/24 01:25:35;;;;;;;15.93;10.00;;;;;;;29.90;38.59;98559.19;2087476;28;20049;-53
2023/07/24 01:26:37;;;;;;;17.92;11.07;;;;;;;29.93;39.08;98558.63;2087976;28;20049;-52
2023/07/24 01:27:43;;;;;;;16.05;10.90;;;;;;;29.94;39.07;98562.97;2088051;28;20097;-53
2023/07/24 01:28:44;;;;;;;13.73;9.93;;;;;;;29.95;40.20;98561.91;2087193;28;20048;-51
2023/07/24 01:29:45;;;;;;;15.20;10.15;;;;;;;29.96;39.80;98562.72;2089768;28;20040;-54
2023/07/24 01:30:46;;;;;;;14.32;9.98;;;;;;;30.02;39.59;98569.78;2088641;28;21378;-51
2023/07/24 01:31:48;;;;;;;15.05;10.85;;;;;;;30.01;39.45;98568.97;2089752;28;20055;-53
2023/07/24 01:32:49;;;;;;;13.48;9.18;;;;;;;30.00;39.17;98563.75;2088573;28;20052;-54
2023/07/24 01:33:51;;;;;;;16.40;10.15;;;;;;;30.03;39.19;98572.25;2090296;28;20411;-49
2023/07/24 01:34:52;;;;;;;19.73;10.88;;;;;;;30.01;39.49;98555.28;2085459;28;20482;-51
2023/07/24 01:35:56;;;;;;;16.20;9.52;;;;;;;29.98;39.31;98552.31;2088957;28;20060;-52
2023/07/24 01:36:57;;;;;;;13.77;10.23;;;;;;;29.98;39.26;98552.31;2087806;28;20048;-52
2023/07/24 01:38:00;;;;;;;16.52;10.60;;;;;;;29.97;39.11;98543.25;2087052;28;20620;-52
2023/07/24 01:39:02;;;;;;;16.88;11.23;;;;;;;29.98;38.84;98533.16;2087775;28;20051;-53
2023/07/24 01:40:04;;;;;;;17.48;11.13;;;;;;;29.98;39.59;98528.50;2079668;28;20053;-51
2023/07/24 01:41:07;;;;;;;15.52;9.90;;;;;;;29.96;40.01;98527.97;2079954;28;20560;-51
2023/07/24 01:42:09;;;;;;;20.17;11.60;;;;;;;29.98;39.89;98536.72;2080243;28;20045;-50
2023/07/24 01:43:11;;;;;;;15.40;9.52;;;;;;;29.97;39.80;98526.88;2079839;28;20069;-51
2023/07/24 01:44:12;;;;;;;13.15;9.32;;;;;;;29.98;39.57;98528.50;2080380;28;20469;-53
2023/07/24 01:45:14;;;;;;;18.88;10.48;;;;;;;29.98;38.94;98523.03;2078045;28;20055;-52
2023/07/24 01:46:15;;;;;;;15.00;9.73;;;;;;;29.96;39.21;98525.25;2084756;28;20093;-52
2023/07/24 01:47:17;;;;;;;16.13;10.57;;;;;;;29.94;38.98;98516.50;2089041;28;20056;-51
2023/07/24 01:48:17;;;;;;;18.02;9.35;;;;;;;29.96;39.24;98519.75;2089484;28;20728;-50
2023/07/24 01:49:19;;;;;;;15.88;9.88;;;;;;;29.97;39.51;98529.59;2088263;28;20052;-54
2023/07/24 01:50:20;;;;;;;18.00;9.95;;;;;;;29.94;39.46;98535.63;2088467;28;20052;-53
2023/07/24 01:51:22;;;;;;;14.77;9.82;;;;;;;29.93;39.50;98542.22;2088027;28;20082;-52
2023/07/24 01:52:22;;;;;;;15.02;9.55;;;;;;;29.93;39.46;98542.22;2088199;28;20040;-51
2023/07/24 01:53:24;;;;;;;15.23;9.73;;;;;;;29.95;39.27;98547.38;2087200;28;20933;-53
2023/07/24 01:54:25;;;;;;;17.55;10.80;;;;;;;29.93;39.81;98539.47;2086793;28;20045;-52
2023/07/24 01:55:27;;;;;;;17.13;10.18;;;;;;;29.93;39.62;98544.94;2090335;28;20129;-55
2023/07/24 01:56:27;;;;;;;15.20;9.85;;;;;;;29.94;39.94;98546.56;2087945;28;20083;-55
2023/07/24 01:57:30;;;;;;;16.88;10.25;;;;;;;29.97;39.69;98550.66;2088485;28;20040;-50
2023/07/24 01:58:31;;;;;;;15.32;10.95;;;;;;;29.98;39.60;98552.31;2089229;28;20662;-54
2023/07/24 01:59:33;;;;;;;20.48;11.57;;;;;;;29.97;39.31;98548.75;2088966;28;20573;-53
2023/07/24 02:00:34;;;;;;;14.88;9.43;;;;;;;29.96;39.18;98538.09;2090455;28;20469;-52
2023/07/24 02:01:36;;;;;;;14.43;9.77;;;;;;;29.97;39.20;98534.25;2087592;28;20044;-50
2023/07/24 02:02:36;;;;;;;17.60;10.45;;;;;;;29.97;39.25;98535.06;2086382;28;20057;-52
2023/07/24 02:03:39;;;;;;;17.45;9.27;;;;;;;29.91;39.51;98541.66;2078699;28;20057;-54
2023/07/24 02:04:40;;;;;;;18.35;11.63;;;;;;;29.81;38.84;98531.59;2085251;28;20141;-51
2023/07/24 02:05:41;;;;;;;15.48;10.45;;;;;;;29.83;38.82;98534.84;2088654;28;20502;-54
2023/07/24 02:06:42;;;;;;;16.33;10.20;;;;;;;29.73;38.79;98534.91;2086050;28;20093;-52
2023/07/24 02:07:43;;;;;;;18.98;10.98;;;;;;;29.77;39.06;98533.25;2089031;28;20040;-51
2023/07/24 02:08:48;;;;;;;16.77;9.68;;;;;;;29.78;38.88;98536.78;2087716;28;20045;-54
2023/07/24 02:09:49;;;;;;;16.25;9.85;;;;;;;29.83;39.34;98539.50;2087399;28;20375;-52
2023/07/24 02:10:50;;;;;;;19.10;10.52;;;;;;;29.85;39.74;98537.31;2089140;28;21338;-53
2023/07/24 02:11:52;;;;;;;14.48;9.75;;;;;;;29.87;40.13;98542.53;2087305;28;20098;-53
2023/07/24 02:12:54;;;;;;;17.27;10.18;;;;;;;29.86;39.87;98544.41;2087399;28;20136;-53
2023/07/24 02:13:56;;;;;;;15.23;10.13;;;;;;;29.86;39.98;98546.34;2089122;28;20048;-53
2023/07/24 02:14:57;;;;;;;14.43;10.27;;;;;;;29.84;39.74;98541.97;2089532;28;20056;-52
2023/07/24 02:15:59;;;;;;;17.42;10.10;;;;;;;29.83;39.46;98551.25;2088028;28;20048;-51
2023/07/24 02:16:59;;;;;;;16.33;10.80;;;;;;;29.86;39.04;98552.63;2088130;28;20069;-52
2023/07/24 02:18:00;;;;;;;18.33;10.40;;;;;;;29.95;39.21;98550.97;2089734;28;20045;-51
2023/07/24 02:19:02;;;;;;;15.30;9.35;;;;;;;29.95;38.65;98542.75;2087022;28;20052;-53
2023/07/24 02:20:03;;;;;;;13.85;9.35;;;;;;;29.93;38.51;98539.47;2087534;28;20079;-53
2023/07/24 02:21:05;;;;;;;18.85;10.95;;;;;;;29.84;39.02;98535.69;2090170;28;20041;-52
2023/07/24 02:22:06;;;;;;;19.38;10.35;;;;;;;29.81;38.83;98536.22;2088904;28;20087;-52
2023/07/24 02:23:08;;;;;;;15.50;9.73;;;;;;;29.83;38.84;98550.44;2082338;28;20060;-53
2023/07/24 02:24:09;;;;;;;17.25;10.43;;;;;;;29.83;38.98;98566.84;2086095;28;20080;-52
2023/07/24 02:25:11;;;;;;;14.68;9.90;;;;;;;29.86;39.43;98571.75;2087293;28;20048;-54
2023/07/24 02:26:11;;;;;;;17.33;10.38;;;;;;;29.83;39.76;98573.13;2086270;28;20132;-49
2023/07/24 02:27:14;;;;;;;15.63;10.30;;;;;;;29.86;39.64;98579.16;2088927;28;20499;-51
2023/07/24 02:28:16;;;;;;;14.07;9.25;;;;;;;29.83;39.44;98572.31;2088908;28;20896;-53
2023/07/24 02:29:18;;;;;;;18.00;9.70;;;;;;;29.75;39.35;98560.03;2088957;28;20802;-53
2023/07/24 02:30:19;;;;;;;18.83;8.82;;;;;;;29.70;39.71;98561.97;2087334;28;20143;-53
2023/07/24 02:31:21;;;;;;;14.82;10.23;;;;;;;29.67;40.23;98557.06;2086984;28;20049;-49
2023/07/24 02:32:22;;;;;;;14.13;8.32;;;;;;;29.64;40.10;98552.16;2088254;28;20101;-53
2023/07/24 02:33:24;;;;;;;12.77;8.82;;;;;;;29.61;40.86;98554.34;2089104;28;20048;-51
2023/07/24 02:34:26;;;;;;;24.48;10.73;;;;;;;29.66;41.08;98555.44;2087536;28;20051;-51
2023/07/24 02:35:27;;;;;;;16.35;9.63;;;;;;;29.64;41.06;98541.22;2084977;28;20048;-50
2023/07/24 02:36:28;;;;;;;12.32;7.97;;;;;;;29.52;41.00;98539.59;2086444;28;20056;-49
2023/07/24 02:37:30;;;;;;;16.10;7.75;;;;;;;29.49;41.14;98540.16;2087812;28;20255;-52
2023/07/24 02:38:31;;;;;;;20.80;8.90;;;;;;;29.41;41.42;98527.06;2087171;28;20068;-52
2023/07/24 02:39:32;;;;;;;12.85;8.23;;;;;;;29.38;41.98;98533.06;2087928;28;20046;-52
2023/07/24 02:40:33;;;;;;;15.07;8.23;;;;;;;29.31;42.68;98525.19;2086813;28;20136;-53
2023/07/24 02:41:35;;;;;;;15.05;7.53;;;;;;;29.24;42.89;98521.09;2087576;28;20048;-52
2023/07/24 02:42:36;;;;;;;13.00;7.13;;;;;;;29.17;43.01;98516.75;2088566;28;20570;-51
2023/07/24 02:43:38;;;;;;;12.30;7.25;;;;;;;29.13;42.84;98515.66;2087079;28;20052;-53
2023/07/24 02:44:40;;;;;;;12.85;7.80;;;;;;;29.20;43.07;98500.88;2089762;28;20053;-52
2023/07/24 02:45:40;;;;;;;13.73;8.13;;;;;;;29.27;42.68;98493.22;2089744;28;20048;-53
2023/07/24 02:46:42;;;;;;;11.95;7.85;;;;;;;29.34;42.81;98480.09;2087403;28;20094;-53
2023/07/24 02:47:43;;;;;;;15.13;8.52;;;;;;;29.41;43.11;98466.94;2088883;28;20075;-54
2023/07/24 02:48:43;;;;;;;15.25;8.13;;;;;;;29.47;42.92;98460.38;2087572;28;20534;-50
2023/07/24 02:49:45;;;;;;;13.23;8.95;;;;;;;29.51;42.52;98456.00;2089637;28;20692;-52
2023/07/24 02:50:47;;;;;;;10.98;7.45;;;;;;;29.52;42.23;98452.16;2087736;28;20045;-53
2023/07/24 02:51:50;;;;;;;11.95;7.32;;;;;;;29.51;42.07;98450.53;2085765;28;20049;-56
2023/07/24 02:52:50;;;;;;;16.95;8.75;;;;;;;29.53;42.00;98464.72;2087674;28;20147;-53
2023/07/24 02:53:54;;;;;;;15.73;8.98;;;;;;;29.57;41.60;98490.38;2085421;28;20056;-52
2023/07/24 02:54:55;;;;;;;13.20;7.82;;;;;;;29.59;41.77;98504.59;2080483;28;20056;-51
2023/07/24 02:55:56;;;;;;;12.95;8.77;;;;;;;29.53;41.14;98513.06;2087718;28;20076;-54
2023/07/24 02:56:58;;;;;;;15.90;8.60;;;;;;;29.46;41.15;98512.56;2086151;28;20060;-54
2023/07/24 02:57:58;;;;;;;14.60;8.73;;;;;;;29.49;41.37;98496.44;2086488;28;20097;-51
2023/07/24 02:59:02;;;;;;;13.60;8.27;;;;;;;29.53;41.84;98486.59;2086514;28;20055;-52
2023/07/24 03:00:03;;;;;;;12.10;9.07;;;;;;;29.55;41.59;98473.44;2088493;28;20630;-54
2023/07/24 03:01:06;;;;;;;15.77;8.73;;;;;;;29.54;41.62;98460.88;2088357;28;20769;-54
2023/07/24 03:02:07;;;;;;;15.30;9.00;;;;;;;29.56;41.52;98461.44;2088357;28;20056;-53
2023/07/24 03:03:08;;;;;;;13.70;8.90;;;;;;;29.56;41.51;98468.78;2087358;28;20068;-53
2023/07/24 03:04:09;;;;;;;12.60;8.73;;;;;;;29.53;41.28;98492.06;2087085;28;20037;-52
2023/07/24 03:05:11;;;;;;;14.23;9.20;;;;;;;29.57;40.44;98523.19;2088285;28;20079;-53
2023/07/24 03:06:11;;;;;;;12.80;7.88;;;;;;;29.53;40.97;98552.19;2089210;28;20048;-50
2023/07/24 03:07:13;;;;;;;15.00;9.55;;;;;;;29.52;41.22;98571.56;2087056;28;20045;-51
2023/07/24 03:08:14;;;;;;;18.02;10.15;;;;;;;29.50;41.08;98577.31;2086037;28;20933;-53
2023/07/24 03:09:16;;;;;;;17.13;9.20;;;;;;;29.48;41.06;98576.78;2087826;28;20048;-53
2023/07/24 03:10:17;;;;;;;17.63;9.57;;;;;;;29.51;40.80;98576.22;2088203;28;20074;-53
2023/07/24 03:11:19;;;;;;;14.70;9.82;;;;;;;29.56;41.08;98587.16;2083205;28;20490;-53
2023/07/24 03:12:20;;;;;;;12.93;9.10;;;;;;;29.54;40.87;98594.78;2079898;28;20053;-49
2023/07/24 03:13:20;;;;;;;12.13;8.63;;;;;;;29.55;40.99;98601.06;2084918;28;20049;-51
2023/07/24 03:14:23;;;;;;;14.55;9.30;;;;;;;29.58;40.77;98598.59;2087584;28;20123;-54
2023/07/24 03:15:24;;;;;;;15.05;9.13;;;;;;;29.59;40.93;98589.31;2086596;28;20802;-50
2023/07/24 03:16:26;;;;;;;16.05;8.98;;;;;;;29.53;41.13;98587.72;2085996;28;20045;-53
2023/07/24 03:17:26;;;;;;;17.55;8.48;;;;;;;29.30;41.78;98566.41;2087912;28;20099;-50
2023/07/24 03:18:28;;;;;;;13.52;8.23;;;;;;;29.01;42.33;98569.72;2088476;28;20414;-53
2023/07/24 03:19:29;;;;;;;14.48;8.38;;;;;;;28.81;43.12;98551.44;2087169;28;20052;-53
2023/07/24 03:20:31;;;;;;;11.95;8.02;;;;;;;28.72;43.62;98563.97;2086924;28;20442;-52
2023/07/24 03:21:32;;;;;;;12.43;7.18;;;;;;;28.64;44.05;98556.31;2087454;28;20047;-53
2023/07/24 03:22:32;;;;;;;16.65;8.15;;;;;;;28.64;44.04;98556.31;2089013;28;20071;-53
2023/07/24 03:23:34;;;;;;;12.68;7.70;;;;;;;28.69;43.99;98565.31;2084037;28;20250;-54
2023/07/24 03:24:35;;;;;;;11.77;6.80;;;;;;;28.74;44.48;98561.78;2088105;28;20074;-52
2023/07/24 03:25:37;;;;;;;13.75;7.38;;;;;;;28.78;44.37;98557.44;2088254;28;20098;-50
2023/07/24 03:26:37;;;;;;;16.08;7.43;;;;;;;28.80;44.61;98541.59;2087312;28;20045;-53
2023/07/24 03:27:40;;;;;;;10.15;6.68;;;;;;;28.86;44.40;98528.75;2087823;28;20118;-50
2023/07/24 03:28:41;;;;;;;13.07;8.15;;;;;;;28.93;44.28;98504.72;2086797;28;20076;-50
2023/07/24 03:29:44;;;;;;;14.45;7.47;;;;;;;28.98;44.18;98499.28;2086955;28;20434;-52
2023/07/24 03:30:45;;;;;;;11.57;6.65;;;;;;;28.95;44.57;98497.91;2085974;28;20754;-52
2023/07/24 03:31:47;;;;;;;12.68;7.03;;;;;;;28.96;44.64;98501.44;2088870;28;20083;-52
2023/07/24 03:32:47;;;;;;;13.20;7.22;;;;;;;29.04;44.43;98500.94;2089202;28;20083;-50
2023/07/24 03:33:48;;;;;;;12.13;7.65;;;;;;;29.12;44.11;98505.81;2089194;28;20055;-59
2023/07/24 03:34:50;;;;;;;12.20;6.75;;;;;;;29.21;43.61;98511.53;2087936;28;20823;-52
2023/07/24 03:35:50;;;;;;;11.52;8.20;;;;;;;29.24;43.42;98510.97;2086413;28;20143;-53
2023/07/24 03:36:52;;;;;;;11.60;8.48;;;;;;;29.25;43.22;98518.06;2088009;28;20055;-52
2023/07/24 03:37:53;;;;;;;12.13;7.38;;;;;;;29.27;43.05;98526.00;2087275;28;20045;-54
2023/07/24 03:38:55;;;;;;;12.43;8.07;;;;;;;29.31;43.00;98529.81;2086991;28;20053;-52
2023/07/24 03:39:56;;;;;;;12.15;7.38;;;;;;;29.32;42.90;98536.94;2087767;28;20053;-50
2023/07/24 03:40:57;;;;;;;14.38;7.60;;;;;;;29.32;42.82;98540.47;2088187;28;20511;-51
2023/07/24 03:41:58;;;;;;;13.38;7.78;;;;;;;29.34;42.75;98534.75;2090059;28;20132;-49
2023/07/24 03:42:59;;;;;;;12.05;7.90;;;;;;;29.32;42.71;98524.06;2086803;28;20052;-49
2023/07/24 03:44:01;;;;;;;16.02;8.95;;;;;;;29.34;42.73;98521.09;2091158;28;20045;-49
2023/07/24 03:45:04;;;;;;;12.23;7.85;;;;;;;29.37;42.54;98504.13;2088139;28;20048;-47
2023/07/24 03:46:06;;;;;;;11.90;7.30;;;;;;;29.28;43.06;98489.38;2088276;28;20136;-48
2023/07/24 03:47:07;;;;;;;16.85;8.77;;;;;;;29.08;43.28;98484.81;2089693;28;20132;-49
2023/07/24 03:48:09;;;;;;;15.43;7.65;;;;;;;28.92;43.56;98470.34;2090196;28;20130;-47
2023/07/24 03:49:09;;;;;;;11.95;7.50;;;;;;;28.81;44.12;98464.09;2090611;28;20068;-47
2023/07/24 03:50:12;;;;;;;10.70;6.35;;;;;;;28.74;43.81;98455.34;2089514;28;20045;-50
2023/07/24 03:51:13;;;;;;;8.52;5.70;;;;;;;28.69;43.72;98449.88;2087213;28;21779;-48
2023/07/24 03:52:15;;;;;;;10.93;6.28;;;;;;;28.63;43.88;98449.06;2086880;28;20438;-49
2023/07/24 03:53:16;;;;;;;15.73;6.93;;;;;;;28.55;44.02;98438.72;2088010;28;20050;-51
2023/07/24 03:54:18;;;;;;;13.23;5.80;;;;;;;28.50;43.84;98430.53;2088065;28;20244;-53
2023/07/24 03:55:19;;;;;;;9.27;5.40;;;;;;;28.46;43.81;98432.97;2087665;28;20135;-48
2023/07/24 03:56:20;;;;;;;11.48;5.78;;;;;;;28.44;44.05;98437.06;2086556;28;20048;-50
2023/07/24 03:57:21;;;;;;;10.35;5.63;;;;;;;28.47;44.04;98439.25;2090082;28;20049;-48
2023/07/24 03:58:23;;;;;;;10.00;5.72;;;;;;;28.51;44.02;98446.63;2082979;28;20049;-50
2023/07/24 03:59:24;;;;;;;11.48;5.38;;;;;;;28.66;43.80;98448.53;2088728;28;20072;-48
2023/07/24 04:00:27;;;;;;;8.55;5.78;;;;;;;28.74;43.82;98447.97;2083635;28;20057;-49
2023/07/24 04:01:28;;;;;;;14.50;5.72;;;;;;;28.76;43.92;98442.25;2079997;28;20064;-49
2023/07/24 04:02:30;;;;;;;9.02;4.95;;;;;;;28.76;43.89;98438.72;2079510;28;20075;-50
2023/07/24 04:03:30;;;;;;;7.28;4.85;;;;;;;28.70;44.00;98421.53;2082195;28;20075;-50
2023/07/24 04:04:32;;;;;;;11.10;5.72;;;;;;;28.67;43.93;98425.63;2081948;28;20102;-47
2023/07/24 04:05:34;;;;;;;13.95;5.13;;;;;;;28.66;44.07;98406.78;2081699;28;20458;-48
2023/07/24 04:06:36;;;;;;;13.15;5.55;;;;;;;28.66;44.10;98410.31;2086171;28;20041;-48
2023/07/24 04:07:37;;;;;;;7.38;4.78;;;;;;;28.66;44.01;98385.75;2083791;28;20143;-49
2023/07/24 04:08:38;;;;;;;11.27;6.20;;;;;;;28.71;44.32;98372.09;2080961;28;20191;-51
2023/07/24 04:09:39;;;;;;;9.32;5.47;;;;;;;28.69;44.39;98348.91;2079923;28;20045;-47
2023/07/24 04:10:40;;;;;;;7.53;5.50;;;;;;;28.55;44.14;98337.75;2081897;28;20056;-49
2023/07/24 04:11:42;;;;;;;10.57;5.10;;;;;;;28.45;44.28;98327.69;2080516;28;20072;-49
2023/07/24 04:12:43;;;;;;;8.80;5.55;;;;;;;28.32;44.26;98320.03;2078117;28;20074;-50
2023/07/24 04:13:45;;;;;;;14.32;6.70;;;;;;;28.13;44.74;98322.50;2079971;28;20590;-48
2023/07/24 04:14:45;;;;;;;7.97;5.25;;;;;;;28.19;44.85;98320.59;2088719;28;20048;-47
2023/07/24 04:15:49;;;;;;;7.50;4.70;;;;;;;28.17;44.86;98320.09;2088265;28;20053;-47
2023/07/24 04:16:49;;;;;;;11.95;5.25;;;;;;;28.21;45.58;98321.97;2086735;28;20045;-49
2023/07/24 04:17:51;;;;;;;11.57;5.28;;;;;;;28.26;45.64;98321.16;2089108;28;20190;-48
2023/07/24 04:18:52;;;;;;;12.07;5.57;;;;;;;28.28;45.68;98325.25;2088641;28;20057;-47
2023/07/24 04:19:54;;;;;;;7.70;4.72;;;;;;;28.31;45.97;98323.06;2089841;28;20048;-48
2023/07/24 04:20:56;;;;;;;6.32;5.38;;;;;;;28.32;47.45;98324.69;2085783;28;20739;-48
2023/07/24 04:21:57;;;;;;;7.85;4.18;;;;;;;28.25;47.58;98317.63;2086760;28;20127;-49
2023/07/24 04:22:58;;;;;;;9.75;4.10;;;;;;;28.33;47.59;98315.41;2087403;28;20056;-52
2023/07/24 04:24:00;;;;;;;9.73;5.32;;;;;;;28.39;47.49;98322.47;2088885;28;20059;-54
2023/07/24 04:25:01;;;;;;;9.35;4.85;;;;;;;28.41;47.67;98320.28;2087886;28;20076;-51
2023/07/24 04:26:03;;;;;;;6.22;4.57;;;;;;;28.47;47.65;98322.78;2088338;28;20175;-52
2023/07/24 04:27:04;;;;;;;12.32;5.82;;;;;;;28.50;47.32;98318.66;2086426;28;20311;-53
2023/07/24 04:28:06;;;;;;;10.20;5.38;;;;;;;28.53;47.85;98320.88;2087142;28;20151;-51
2023/07/24 04:29:07;;;;;;;8.63;4.00;;;;;;;28.56;47.88;98320.31;2084590;28;20045;-54
2023/07/24 04:30:09;;;;;;;8.77;5.28;;;;;;;28.58;48.15;98311.84;2087232;28;20040;-53
2023/07/24 04:31:11;;;;;;;10.13;4.75;;;;;;;28.51;49.54;98306.69;2084632;28;21345;-53
2023/07/24 04:32:13;;;;;;;8.48;4.95;;;;;;;28.51;49.13;98295.75;2086877;28;20048;-53
2023/07/24 04:33:14;;;;;;;10.88;3.95;;;;;;;28.54;48.62;98278.84;2086000;28;20056;-49
2023/07/24 04:34:16;;;;;;;9.95;4.63;;;;;;;28.62;48.20;98278.28;2085131;28;20051;-52
2023/07/24 04:35:17;;;;;;;12.80;5.53;;;;;;;28.70;47.63;98272.25;2089239;28;20506;-51
2023/07/24 04:36:18;;;;;;;8.90;4.95;;;;;;;28.79;47.23;98280.66;2085153;28;20072;-54
2023/07/24 04:37:19;;;;;;;7.90;5.32;;;;;;;28.83;46.65;98279.00;2080807;28;20205;-50
2023/07/24 04:38:21;;;;;;;14.05;6.35;;;;;;;28.89;46.49;98279.78;2080541;28;20503;-51
2023/07/24 04:39:22;;;;;;;12.38;4.57;;;;;;;28.90;46.26;98273.25;2080837;28;21076;-54
2023/07/24 04:40:24;;;;;;;14.25;5.03;;;;;;;28.89;46.58;98269.72;2080940;28;20048;-52
2023/07/24 04:41:25;;;;;;;8.57;4.47;;;;;;;28.91;46.10;98264.75;2080083;28;20052;-49
2023/07/24 04:42:26;;;;;;;14.32;5.45;;;;;;;28.93;45.99;98272.69;2079781;28;20077;-52
2023/07/24 04:43:27;;;;;;;9.98;4.97;;;;;;;28.92;45.79;98277.34;2079884;28;20072;-53
2023/07/24 04:44:29;;;;;;;9.63;5.68;;;;;;;28.94;45.84;98291.50;2076796;28;20041;-53
2023/07/24 04:45:30;;;;;;;10.52;5.13;;;;;;;28.98;45.76;98310.06;2080493;28;20060;-51
2023/07/24 04:46:33;;;;;;;9.68;4.60;;;;;;;29.00;45.67;98318.78;2079943;28;20393;-51
2023/07/24 04:47:34;;;;;;;14.23;4.68;;;;;;;29.01;45.36;98320.44;2079319;28;20060;-52